createdAt,value
2022-08-08T00:01:00.014Z,4.60
2022-08-08T00:02:33.212Z,4.22
2022-08-08T00:05:09.419Z,3.85
2022-08-08T00:07:45.100Z,4.25
2022-08-08T00:10:18.518Z,4.25
2022-08-08T00:13:06.146Z,4.00
2022-08-08T00:15:57.407Z,4.25
2022-08-08T00:18:36.616Z,4.13
2022-08-08T00:21:07.747Z,4.03
2022-08-08T00:23:47.735Z,4.30
2022-08-08T00:26:29.705Z,4.20
2022-08-08T00:29:08.187Z,3.60
2022-08-08T00:32:21.136Z,4.75
2022-08-08T00:35:07.667Z,4.07
2022-08-08T00:37:57.092Z,3.90
2022-08-08T00:41:10.698Z,3.63
2022-08-08T00:44:15.375Z,3.58
2022-08-08T00:47:14.116Z,4.07
2022-08-08T00:50:34.232Z,3.65
2022-08-08T00:53:15.811Z,4.20
2022-08-08T00:56:19.926Z,4.18
2022-08-08T00:59:44.306Z,4.18
2022-08-08T01:04:01.425Z,4.00
2022-08-08T01:06:38.681Z,4.07
2022-08-08T01:09:48.574Z,4.07
2022-08-08T01:12:45.759Z,4.22
2022-08-08T01:15:47.327Z,4.75
2022-08-08T01:18:56.501Z,3.97
2022-08-08T01:22:15.602Z,4.15
2022-08-08T01:25:05.092Z,4.03
2022-08-08T01:28:02.103Z,4.65
2022-08-08T01:31:06.027Z,4.57
2022-08-08T01:34:36.796Z,4.25
2022-08-08T01:37:56.693Z,4.38
2022-08-08T01:40:38.114Z,4.10
2022-08-08T01:43:14.994Z,4.13
2022-08-08T01:45:58.379Z,4.15
2022-08-08T01:48:53.442Z,4.43
2022-08-08T01:52:33.441Z,4.20
2022-08-08T01:55:26.621Z,5.05
2022-08-08T01:58:10.711Z,4.20
2022-08-08T02:00:48.470Z,4.60
2022-08-08T02:03:55.311Z,4.05
2022-08-08T02:06:32.469Z,4.18
2022-08-08T02:10:02.581Z,3.90
2022-08-08T02:12:19.643Z,4.10
2022-08-08T02:14:59.050Z,4.63
2022-08-08T02:17:42.936Z,4.32
2022-08-08T02:21:00.912Z,4.53
2022-08-08T02:23:31.843Z,4.40
2022-08-08T02:26:11.034Z,4.20
2022-08-08T02:28:55.186Z,4.10
2022-08-08T02:31:59.344Z,4.63
2022-08-08T02:35:08.392Z,4.30
2022-08-08T02:38:25.397Z,4.28
2022-08-08T02:41:59.157Z,4.65
2022-08-08T02:44:56.911Z,4.32
2022-08-08T02:47:58.967Z,4.20
2022-08-08T02:53:50.868Z,4.70
2022-08-08T02:56:57.682Z,4.68
2022-08-08T03:00:26.706Z,4.43
2022-08-08T03:05:01.699Z,4.32
2022-08-08T03:07:25.035Z,4.60
2022-08-08T03:10:33.051Z,4.25
2022-08-08T03:15:57.286Z,4.95
2022-08-08T03:16:44.190Z,5.03
2022-08-08T03:19:29.781Z,4.63
2022-08-08T03:21:59.822Z,5.10
2022-08-08T03:24:31.877Z,4.75
2022-08-08T03:27:21.741Z,4.80
2022-08-08T03:30:03.079Z,4.70
2022-08-08T03:32:56.906Z,4.78
2022-08-08T03:35:30.334Z,4.95
2022-08-08T03:38:53.688Z,4.80
2022-08-08T03:40:56.853Z,4.30
2022-08-08T03:43:28.695Z,4.95
2022-08-08T03:46:09.088Z,4.70
2022-08-08T03:49:56.677Z,4.78
2022-08-08T03:51:50.545Z,4.90
2022-08-08T03:54:51.680Z,4.57
2022-08-08T03:58:30.012Z,4.60
2022-08-08T04:00:07.683Z,4.47
2022-08-08T04:02:46.918Z,5.05
2022-08-08T04:05:19.532Z,4.65
2022-08-08T04:07:58.355Z,3.30
2022-08-08T04:10:31.928Z,3.40
2022-08-08T04:13:17.586Z,3.08
2022-08-08T04:15:54.871Z,2.85
2022-08-08T04:18:41.805Z,2.92
2022-08-08T04:21:11.657Z,3.28
2022-08-08T04:24:11.684Z,3.35
2022-08-08T04:26:40.036Z,3.60
2022-08-08T04:29:20.623Z,3.60
2022-08-08T04:31:59.743Z,3.75
2022-08-08T04:34:32.455Z,3.70
2022-08-08T04:37:17.563Z,3.03
2022-08-08T04:40:04.127Z,3.60
2022-08-08T04:42:46.689Z,3.80
2022-08-08T04:45:28.952Z,3.70
2022-08-08T04:48:00.488Z,3.72
2022-08-08T04:50:38.678Z,3.50
2022-08-08T04:53:52.098Z,3.67
2022-08-08T04:55:59.680Z,4.83
2022-08-08T04:58:31.627Z,4.38
2022-08-08T05:01:08.763Z,4.10
2022-08-08T05:04:09.780Z,4.28
2022-08-08T05:06:29.305Z,4.20
2022-08-08T05:09:02.442Z,4.30
2022-08-08T05:11:38.784Z,4.57
2022-08-08T05:14:08.260Z,3.72
2022-08-08T05:16:55.526Z,4.18
2022-08-08T05:20:09.784Z,3.53
2022-08-08T05:22:17.587Z,3.70
2022-08-08T05:24:49.338Z,3.60
2022-08-08T05:27:21.589Z,4.00
2022-08-08T05:29:51.807Z,3.67
2022-08-08T05:32:27.416Z,3.95
2022-08-08T05:35:04.447Z,3.65
2022-08-08T05:37:51.890Z,3.13
2022-08-08T05:40:28.765Z,2.90
2022-08-08T05:43:38.474Z,3.10
2022-08-08T05:46:03.757Z,3.03
2022-08-08T05:48:37.726Z,3.60
2022-08-08T05:51:14.689Z,2.70
2022-08-08T05:54:25.036Z,3.20
2022-08-08T05:56:42.293Z,3.08
2022-08-08T05:59:52.325Z,2.85
2022-08-08T06:02:34.695Z,2.80
2022-08-08T06:05:06.890Z,2.67
2022-08-08T06:08:02.523Z,3.40
2022-08-08T06:10:34.893Z,2.80
2022-08-08T06:13:08.567Z,3.40
2022-08-08T06:15:50.575Z,3.30
2022-08-08T06:18:28.343Z,3.40
2022-08-08T06:21:03.617Z,3.28
2022-08-08T06:23:49.019Z,3.60
2022-08-08T06:26:35.927Z,2.97
2022-08-08T06:29:48.810Z,3.42
2022-08-08T06:32:10.445Z,3.83
2022-08-08T06:34:56.334Z,3.22
2022-08-08T06:37:44.494Z,3.42
2022-08-08T06:40:16.870Z,3.15
2022-08-08T06:42:55.880Z,2.90
2022-08-08T06:45:33.903Z,3.58
2022-08-08T06:48:04.536Z,3.95
2022-08-08T06:50:38.682Z,3.47
2022-08-08T06:53:17.241Z,3.17
2022-08-08T06:56:02.835Z,3.63
2022-08-08T06:58:35.264Z,3.78
2022-08-08T07:01:11.722Z,3.58
2022-08-08T07:04:36.819Z,3.85
2022-08-08T07:06:57.517Z,4.93
2022-08-08T07:09:45.206Z,4.25
2022-08-08T07:12:41.236Z,4.35
2022-08-08T07:15:31.887Z,4.22
2022-08-08T07:18:35.621Z,4.20
2022-08-08T07:21:05.729Z,4.55
2022-08-08T07:24:01.960Z,3.88
2022-08-08T07:26:41.253Z,3.90
2022-08-08T07:29:58.776Z,4.00
2022-08-08T07:32:03.216Z,4.20
2022-08-08T07:34:32.408Z,3.47
2022-08-08T07:37:11.633Z,3.78
2022-08-08T07:39:45.636Z,4.00
2022-08-08T07:42:33.215Z,4.18
2022-08-08T07:45:02.563Z,3.95
2022-08-08T07:47:38.827Z,4.22
2022-08-08T07:50:10.758Z,4.20
2022-08-08T07:52:44.456Z,3.88
2022-08-08T07:55:23.417Z,3.40
2022-08-08T07:58:14.724Z,3.38
2022-08-08T08:00:47.585Z,3.75
2022-08-08T08:03:28.234Z,3.95
2022-08-08T08:05:59.761Z,3.90
2022-08-08T08:08:50.123Z,3.65
2022-08-08T08:11:38.054Z,3.55
2022-08-08T08:14:19.350Z,4.07
2022-08-08T08:16:50.607Z,3.85
2022-08-08T08:19:26.843Z,4.18
2022-08-08T08:22:02.409Z,3.47
2022-08-08T08:24:42.905Z,3.53
2022-08-08T08:27:14.794Z,3.83
2022-08-08T08:29:51.955Z,3.85
2022-08-08T08:32:31.518Z,3.78
2022-08-08T08:35:06.577Z,4.13
2022-08-08T08:37:52.996Z,4.03
2022-08-08T08:40:25.451Z,3.60
2022-08-08T08:42:57.039Z,4.15
2022-08-08T08:45:27.341Z,4.63
2022-08-08T08:48:01.450Z,3.90
2022-08-08T08:50:41.012Z,4.25
2022-08-08T08:53:55.195Z,3.05
2022-08-08T08:56:13.085Z,3.25
2022-08-08T08:58:46.954Z,3.60
2022-08-08T09:01:25.332Z,3.58
2022-08-08T09:04:00.710Z,3.53
2022-08-08T09:06:40.514Z,3.83
2022-08-08T09:09:35.314Z,3.50
2022-08-08T09:12:13.074Z,3.05
2022-08-08T09:14:47.658Z,3.63
2022-08-08T09:17:41.124Z,3.40
2022-08-08T09:22:02.281Z,3.30
2022-08-08T09:23:04.376Z,3.20
2022-08-08T09:25:58.462Z,2.97
2022-08-08T09:28:37.350Z,3.00
2022-08-08T09:34:14.686Z,3.00
2022-08-08T09:36:40.184Z,2.80
2022-08-08T09:39:22.556Z,2.67
2022-08-08T09:42:19.875Z,2.55
2022-08-08T09:45:03.715Z,2.10
2022-08-08T09:48:04.895Z,2.38
2022-08-08T09:50:28.034Z,2.67
2022-08-08T09:53:02.197Z,2.72
2022-08-08T09:56:03.774Z,2.50
2022-08-08T09:58:40.485Z,2.40
2022-08-08T10:01:14.986Z,2.65
2022-08-08T10:04:02.338Z,2.47
2022-08-08T10:06:42.255Z,2.33
2022-08-08T10:09:13.427Z,2.20
2022-08-08T10:12:27.004Z,2.40
2022-08-08T10:14:39.572Z,2.28
2022-08-08T10:17:56.789Z,9.15
2022-08-08T10:20:17.084Z,2.65
2022-08-08T10:22:55.121Z,2.42
2022-08-08T10:25:25.786Z,2.47
2022-08-08T10:28:08.170Z,2.30
2022-08-08T10:30:59.913Z,2.50
2022-08-08T10:33:38.540Z,2.67
2022-08-08T10:36:26.076Z,1.92
2022-08-08T10:39:03.643Z,2.38
2022-08-08T10:41:58.916Z,2.33
2022-08-08T10:44:30.651Z,2.28
2022-08-08T10:47:10.022Z,2.30
2022-08-08T10:50:02.120Z,2.08
2022-08-08T10:52:33.218Z,1.92
2022-08-08T10:55:05.246Z,2.10
2022-08-08T10:57:45.048Z,2.13
2022-08-08T11:00:23.327Z,1.70
2022-08-08T11:02:54.310Z,2.20
2022-08-08T11:05:24.165Z,1.75
2022-08-08T11:08:31.362Z,1.70
2022-08-08T11:10:43.598Z,2.10
2022-08-08T11:13:29.663Z,1.92
2022-08-08T11:16:07.481Z,1.92
2022-08-08T11:18:37.781Z,1.85
2022-08-08T11:21:10.316Z,2.20
2022-08-08T11:24:02.139Z,2.10
2022-08-08T11:26:32.602Z,1.90
2022-08-08T11:29:04.450Z,1.65
2022-08-08T11:31:43.162Z,1.50
2022-08-08T11:34:24.516Z,1.40
2022-08-08T11:37:15.266Z,1.35
2022-08-08T11:39:57.143Z,1.90
2022-08-08T11:42:30.878Z,2.22
2022-08-08T11:45:00.539Z,1.48
2022-08-08T11:47:39.690Z,1.80
2022-08-08T11:50:23.141Z,1.60
2022-08-08T11:52:54.491Z,1.48
2022-08-08T11:55:26.756Z,1.35
2022-08-08T11:58:14.854Z,1.40
2022-08-08T12:00:48.047Z,1.30
2022-08-08T12:03:22.201Z,1.40
2022-08-08T12:05:52.806Z,1.60
2022-08-08T12:08:33.652Z,1.37
2022-08-08T12:11:04.669Z,1.60
2022-08-08T12:14:02.989Z,1.50
2022-08-08T12:16:30.194Z,1.50
2022-08-08T12:19:05.697Z,1.45
2022-08-08T12:22:00.318Z,1.50
2022-08-08T12:24:27.887Z,1.58
2022-08-08T12:26:57.066Z,1.48
2022-08-08T12:29:40.622Z,1.63
2022-08-08T12:32:13.562Z,1.70
2022-08-08T12:34:53.856Z,1.67
2022-08-08T12:37:41.586Z,1.90
2022-08-08T12:40:22.897Z,2.03
2022-08-08T12:42:53.733Z,1.60
2022-08-08T12:46:00.014Z,1.67
2022-08-08T12:48:36.905Z,1.50
2022-08-08T12:51:11.330Z,1.80
2022-08-08T12:53:58.632Z,1.42
2022-08-08T12:56:35.499Z,1.60
2022-08-08T12:59:15.334Z,1.33
2022-08-08T13:01:50.330Z,1.50
2022-08-08T13:04:24.974Z,1.48
2022-08-08T13:06:55.786Z,1.33
2022-08-08T13:09:57.454Z,1.42
2022-08-08T13:12:30.284Z,1.40
2022-08-08T13:15:01.113Z,1.52
2022-08-08T13:18:08.671Z,1.40
2022-08-08T13:20:21.848Z,1.50
2022-08-08T13:22:51.608Z,1.30
2022-08-08T13:25:27.809Z,1.90
2022-08-08T13:28:00.584Z,2.78
2022-08-08T13:30:29.362Z,1.55
2022-08-08T13:32:59.299Z,1.70
2022-08-08T13:38:08.523Z,1.33
2022-08-08T13:40:41.423Z,1.60
2022-08-08T13:43:15.844Z,1.70
2022-08-08T13:45:47.483Z,1.40
2022-08-08T13:48:19.689Z,1.60
2022-08-08T13:50:57.863Z,1.60
2022-08-08T13:53:53.365Z,1.55
2022-08-08T13:56:31.763Z,1.20
2022-08-08T13:59:01.258Z,1.75
2022-08-08T14:01:42.072Z,1.58
2022-08-08T14:04:22.491Z,1.38
2022-08-08T14:06:58.860Z,1.33
2022-08-08T14:10:05.409Z,1.58
2022-08-08T14:12:28.063Z,1.50
2022-08-08T14:14:58.939Z,1.40
2022-08-08T14:17:57.846Z,1.23
2022-08-08T14:20:56.989Z,1.23
2022-08-08T14:23:10.378Z,1.30
2022-08-08T14:25:54.078Z,1.58
2022-08-08T14:28:29.011Z,1.52
2022-08-08T14:31:09.075Z,1.60
2022-08-08T14:36:11.468Z,1.40
2022-08-08T14:38:52.733Z,1.25
2022-08-08T14:41:53.503Z,1.17
2022-08-08T14:44:22.027Z,1.40
2022-08-08T14:47:01.322Z,1.55
2022-08-08T14:49:37.775Z,1.40
2022-08-08T14:52:23.862Z,1.27
2022-08-08T14:54:51.911Z,1.23
2022-08-08T14:57:24.173Z,1.77
2022-08-08T15:00:11.487Z,1.48
2022-08-08T15:02:58.988Z,2.40
2022-08-08T15:05:52.256Z,3.30
2022-08-08T15:08:35.621Z,3.20
2022-08-08T15:11:09.288Z,3.08
2022-08-08T15:14:01.936Z,3.10
2022-08-08T15:16:34.280Z,3.42
2022-08-08T15:19:05.211Z,2.75
2022-08-08T15:21:37.936Z,3.00
2022-08-08T15:24:16.098Z,3.13
2022-08-08T15:26:52.501Z,3.15
2022-08-08T15:29:22.461Z,3.25
2022-08-08T15:32:18.158Z,3.05
2022-08-08T15:34:42.150Z,3.33
2022-08-08T15:37:10.778Z,3.75
2022-08-08T15:39:41.372Z,3.50
2022-08-08T15:42:17.837Z,3.92
2022-08-08T15:44:58.706Z,3.50
2022-08-08T15:47:26.811Z,3.13
2022-08-08T15:49:56.472Z,3.10
2022-08-08T15:52:25.286Z,3.70
2022-08-08T15:54:54.707Z,3.25
2022-08-08T15:57:23.582Z,3.73
2022-08-08T16:00:25.501Z,3.47
2022-08-08T16:02:44.130Z,3.50
2022-08-08T16:05:21.115Z,3.67
2022-08-08T16:07:51.356Z,3.30
2022-08-08T16:13:14.551Z,3.20
2022-08-08T16:13:29.936Z,3.15
2022-08-08T16:16:09.652Z,3.42
2022-08-08T16:18:57.432Z,3.42
2022-08-08T16:21:33.293Z,3.47
2022-08-08T16:24:02.950Z,3.47
2022-08-08T16:26:35.303Z,3.58
2022-08-08T16:29:07.880Z,3.28
2022-08-08T16:31:37.347Z,3.88
2022-08-08T16:34:05.938Z,3.47
2022-08-08T16:36:36.492Z,3.65
2022-08-08T16:39:09.800Z,3.08
2022-08-08T16:41:50.969Z,3.20
2022-08-08T16:44:28.065Z,3.15
2022-08-08T16:47:16.930Z,3.20
2022-08-08T16:49:47.835Z,4.20
2022-08-08T16:55:22.449Z,3.65
2022-08-08T16:55:42.565Z,3.70
2022-08-08T16:58:14.085Z,2.95
2022-08-08T17:00:48.861Z,3.22
2022-08-08T17:03:25.016Z,2.80
2022-08-08T17:06:36.823Z,3.28
2022-08-08T17:08:56.522Z,2.90
2022-08-08T17:11:28.339Z,2.75
2022-08-08T17:14:19.078Z,3.05
2022-08-08T17:16:57.348Z,3.00
2022-08-08T17:19:29.020Z,3.20
2022-08-08T17:22:01.359Z,2.85
2022-08-08T17:24:33.174Z,2.92
2022-08-08T17:27:05.963Z,3.50
2022-08-08T17:29:36.212Z,3.47
2022-08-08T17:32:07.938Z,3.78
2022-08-08T17:34:53.943Z,4.47
2022-08-08T17:37:27.638Z,4.00
2022-08-08T17:40:05.683Z,3.13
2022-08-08T17:42:41.682Z,4.55
2022-08-08T17:45:22.702Z,4.95
2022-08-08T17:47:54.168Z,3.22
2022-08-08T17:50:23.729Z,4.25
2022-08-08T17:52:52.730Z,4.07
2022-08-08T17:56:05.612Z,4.50
2022-08-08T17:58:11.789Z,4.60
2022-08-08T18:00:41.543Z,5.28
2022-08-08T18:03:13.272Z,4.53
2022-08-08T18:05:47.912Z,4.47
2022-08-08T18:08:38.168Z,3.55
2022-08-08T18:11:08.398Z,3.55
2022-08-08T18:13:41.663Z,3.78
2022-08-08T18:16:11.127Z,3.90
2022-08-08T18:18:42.905Z,3.97
2022-08-08T18:21:35.355Z,3.60
2022-08-08T18:24:02.541Z,3.13
2022-08-08T18:26:33.317Z,3.60
2022-08-08T18:29:06.050Z,4.65
2022-08-08T18:31:34.265Z,4.10
2022-08-08T18:34:11.484Z,3.42
2022-08-08T18:36:54.911Z,3.35
2022-08-08T18:39:28.541Z,3.70
2022-08-08T18:42:03.019Z,3.45
2022-08-08T18:44:34.537Z,2.72
2022-08-08T18:47:03.049Z,2.90
2022-08-08T18:49:57.263Z,3.45
2022-08-08T18:52:22.802Z,3.05
2022-08-08T18:55:01.039Z,2.80
2022-08-08T18:57:44.821Z,2.88
2022-08-08T19:00:20.622Z,2.83
2022-08-08T19:02:55.191Z,2.90
2022-08-08T19:05:45.470Z,3.17
2022-08-08T19:08:25.429Z,3.20
2022-08-08T19:11:02.179Z,3.00
2022-08-08T19:13:53.730Z,3.05
2022-08-08T19:16:28.411Z,3.17
2022-08-08T19:19:03.210Z,3.25
2022-08-08T19:21:32.913Z,2.85
2022-08-08T19:24:05.538Z,3.30
2022-08-08T19:26:35.629Z,3.47
2022-08-08T19:29:08.276Z,3.00
2022-08-08T19:31:39.137Z,2.70
2022-08-08T19:34:36.379Z,3.20
2022-08-08T19:37:03.637Z,3.05
2022-08-08T19:39:35.163Z,3.42
2022-08-08T19:42:06.637Z,3.13
2022-08-08T19:44:45.338Z,3.60
2022-08-08T19:47:16.238Z,3.42
2022-08-08T19:49:59.576Z,3.10
2022-08-08T19:52:34.299Z,3.05
2022-08-08T19:55:05.106Z,3.25
2022-08-08T19:57:35.614Z,3.28
2022-08-08T20:00:11.407Z,3.53
2022-08-08T20:02:57.266Z,3.63
2022-08-08T20:06:14.972Z,3.55
2022-08-08T20:08:30.274Z,3.33
2022-08-08T20:11:01.148Z,3.35
2022-08-08T20:14:32.011Z,3.35
2022-08-08T20:16:20.266Z,3.72
2022-08-08T20:18:53.909Z,3.72
2022-08-08T20:21:25.458Z,3.40
2022-08-08T20:23:58.123Z,3.50
2022-08-08T20:26:33.768Z,3.90
2022-08-08T20:29:03.537Z,3.80
2022-08-08T20:31:47.118Z,4.28
2022-08-08T20:34:30.629Z,4.05
2022-08-08T20:37:00.890Z,3.90
2022-08-08T20:39:39.742Z,4.38
2022-08-08T20:42:23.684Z,4.28
2022-08-08T20:44:58.222Z,4.25
2022-08-08T20:47:36.195Z,3.78
2022-08-08T20:50:09.927Z,3.90
2022-08-08T20:52:39.452Z,4.07
2022-08-08T20:55:16.205Z,4.15
2022-08-08T20:57:54.373Z,4.05
2022-08-08T21:00:26.671Z,4.03
2022-08-08T21:02:56.320Z,4.22
2022-08-08T21:05:31.844Z,3.93
2022-08-08T21:08:33.715Z,3.90
2022-08-08T21:10:50.094Z,4.32
2022-08-08T21:13:18.230Z,4.72
2022-08-08T21:16:05.586Z,4.00
2022-08-08T21:18:35.882Z,4.00
2022-08-08T21:21:20.675Z,4.10
2022-08-08T21:24:03.870Z,4.45
2022-08-08T21:26:35.401Z,4.40
2022-08-08T21:29:03.466Z,4.20
2022-08-08T21:31:53.219Z,4.28
2022-08-08T21:34:21.300Z,4.72
2022-08-08T21:36:53.027Z,3.80
2022-08-08T21:39:41.327Z,4.18
2022-08-08T21:42:10.127Z,4.45
2022-08-08T21:44:38.917Z,3.55
2022-08-08T21:48:20.238Z,4.07
2022-08-08T21:50:20.374Z,3.80
2022-08-08T21:54:31.914Z,4.35
2022-08-08T21:56:24.492Z,3.80
2022-08-08T21:58:37.516Z,3.72
2022-08-08T22:01:06.397Z,3.22
2022-08-08T22:03:54.462Z,3.50
2022-08-08T22:06:28.736Z,3.65
2022-08-08T22:09:02.725Z,3.65
2022-08-08T22:11:51.187Z,4.07
2022-08-08T22:14:26.845Z,3.80
2022-08-08T22:16:57.428Z,3.42
2022-08-08T22:20:12.776Z,3.47
2022-08-08T22:22:27.722Z,3.25
2022-08-08T22:24:58.363Z,3.15
2022-08-08T22:27:38.947Z,3.60
2022-08-08T22:30:29.659Z,3.40
2022-08-08T22:32:58.407Z,3.38
2022-08-08T22:36:05.545Z,3.45
2022-08-08T22:38:48.082Z,3.50
2022-08-08T22:41:23.257Z,3.15
2022-08-08T22:44:01.865Z,3.90
2022-08-08T22:46:33.064Z,3.55
2022-08-08T22:49:01.320Z,3.10
2022-08-08T22:51:34.798Z,3.50
2022-08-08T22:54:30.624Z,3.30
2022-08-08T22:56:59.769Z,3.35
2022-08-08T22:59:36.281Z,3.40
2022-08-08T23:02:19.614Z,3.08
2022-08-08T23:04:57.921Z,3.35
2022-08-08T23:07:56.820Z,3.25
2022-08-08T23:10:21.628Z,3.10
2022-08-08T23:12:53.682Z,3.38
2022-08-08T23:16:41.055Z,2.97
2022-08-08T23:18:11.527Z,3.20
2022-08-08T23:20:40.838Z,2.92
2022-08-08T23:23:11.671Z,3.47
2022-08-08T23:25:48.464Z,3.53
2022-08-08T23:28:19.135Z,3.45
2022-08-08T23:30:47.980Z,3.63
2022-08-08T23:33:21.150Z,3.83
2022-08-08T23:36:08.537Z,3.40
2022-08-08T23:38:41.841Z,3.20
2022-08-08T23:41:22.920Z,3.85
2022-08-08T23:43:56.418Z,3.05
2022-08-08T23:49:06.770Z,3.45
2022-08-08T23:49:15.213Z,3.25
2022-08-08T23:52:04.794Z,2.80
2022-08-08T23:54:42.159Z,3.70
2022-08-08T23:57:26.374Z,3.70
